Time;durP1;ratioP1;P1;durP2;ratioP2;P2;SDS_P1;SDS_P2;PMS_P1;PMS_P2;Temp;Humidity;BMP_temperature;BMP_pressure;BME280_temperature;BME280_humidity;BME280_pressure;Samples;Min_cycle;Max_cycle;Signal;HPM_P1;HPM_P2
2021/09/29 00:00:23;;;;;;;2.77;2.50;;;;;;;-143.37;100.00;65745.06;5093303;28;20271;-76
2021/09/29 00:02:50;;;;;;;4.73;2.53;;;;;;;-143.37;100.00;65745.06;5093486;28;20287;-76
2021/09/29 00:05:17;;;;;;;3.40;2.70;;;;;;;-143.37;100.00;65745.06;5092629;28;20213;-76
2021/09/29 00:07:43;;;;;;;2.87;2.50;;;;;;;-143.37;100.00;65745.06;5091944;28;20224;-76
2021/09/29 00:10:11;;;;;;;4.83;2.60;;;;;;;-143.37;100.00;65745.06;5089323;28;20253;-77
2021/09/29 00:12:39;;;;;;;2.77;2.10;;;;;;;-143.37;100.00;65745.06;5076922;28;20296;-77
2021/09/29 00:15:10;;;;;;;3.53;2.70;;;;;;;-143.37;100.00;65745.06;5075632;28;20266;-76
2021/09/29 00:17:38;;;;;;;3.53;2.93;;;;;;;-143.37;100.00;65745.06;5077098;28;20332;-76
2021/09/29 00:20:06;;;;;;;3.43;3.00;;;;;;;-143.37;100.00;65745.06;5072112;28;20304;-76
2021/09/29 00:22:32;;;;;;;6.73;2.80;;;;;;;-143.37;100.00;65745.06;5062525;28;20248;-77
2021/09/29 00:24:59;;;;;;;5.43;2.53;;;;;;;-143.37;100.00;65745.06;5069486;28;20212;-77
2021/09/29 00:27:26;;;;;;;3.23;2.60;;;;;;;-143.37;100.00;65745.06;5072518;28;20673;-77
2021/09/29 00:29:54;;;;;;;3.73;2.57;;;;;;;-143.37;100.00;65745.06;5072830;28;20200;-77
2021/09/29 00:32:21;;;;;;;5.27;2.63;;;;;;;-143.37;100.00;65745.06;5072378;28;20304;-76
2021/09/29 00:34:47;;;;;;;3.87;2.50;;;;;;;-143.37;100.00;65745.06;5089939;28;20204;-76
2021/09/29 00:37:13;;;;;;;5.17;2.73;;;;;;;-143.37;100.00;65745.06;5092869;28;20270;-76
2021/09/29 00:39:40;;;;;;;4.17;2.70;;;;;;;-143.37;100.00;65745.06;5089118;28;20296;-76
2021/09/29 00:42:07;;;;;;;4.17;3.00;;;;;;;-143.37;100.00;65745.06;5072474;28;20641;-76
2021/09/29 00:44:33;;;;;;;4.07;2.80;;;;;;;-143.37;100.00;65745.06;5071993;28;20212;-76
2021/09/29 00:47:00;;;;;;;2.90;2.60;;;;;;;-143.37;100.00;65745.06;5070731;28;20251;-77
2021/09/29 00:49:26;;;;;;;3.93;2.60;;;;;;;-143.37;100.00;65745.06;5072298;28;20764;-77
2021/09/29 00:51:54;;;;;;;4.07;2.60;;;;;;;-143.37;100.00;65745.06;5072984;28;20643;-77
2021/09/29 00:54:26;;;;;;;3.13;2.50;;;;;;;-143.37;100.00;65745.06;5072108;28;20304;-77
2021/09/29 00:56:53;;;;;;;4.27;2.47;;;;;;;-143.37;100.00;65745.06;5079131;28;20330;-78
2021/09/29 00:59:20;;;;;;;3.00;2.30;;;;;;;-143.37;100.00;65745.06;5092543;28;20307;-77
2021/09/29 01:34:35;;;;;;;2.43;1.97;;;;;;;-143.37;100.00;65745.06;5110007;27;20567;-75
2021/09/29 01:37:05;;;;;;;3.20;2.73;;;;;;;-143.37;100.00;65745.06;5109931;28;20223;-76
2021/09/29 01:39:32;;;;;;;6.13;2.67;;;;;;;-143.37;100.00;65745.06;5107772;28;20211;-76
2021/09/29 01:41:59;;;;;;;3.23;2.57;;;;;;;-143.37;100.00;65745.06;5089875;28;20615;-77
2021/09/29 01:44:26;;;;;;;3.13;2.17;;;;;;;-143.37;100.00;65745.06;5089120;28;20218;-77
2021/09/29 01:46:53;;;;;;;3.83;2.57;;;;;;;-143.37;100.00;65745.06;5089125;28;20260;-76
2021/09/29 01:49:26;;;;;;;2.90;2.20;;;;;;;-143.37;100.00;65745.06;5088646;28;20204;-78
2021/09/29 01:51:54;;;;;;;3.67;2.33;;;;;;;-143.37;100.00;65745.06;5089316;28;20201;-75
2021/09/29 01:54:25;;;;;;;3.37;2.40;;;;;;;-143.37;100.00;65745.06;5089349;28;20320;-77
2021/09/29 01:56:52;;;;;;;3.80;2.47;;;;;;;-143.37;100.00;65745.06;5096088;28;20318;-78
2021/09/29 01:59:21;;;;;;;4.07;3.03;;;;;;;-143.37;100.00;65745.06;5109765;28;20199;-76
2021/09/29 02:01:48;;;;;;;3.23;2.57;;;;;;;-143.37;100.00;65745.06;5109545;28;20302;-78
2021/09/29 02:04:19;;;;;;;4.33;3.03;;;;;;;-143.37;100.00;65745.06;5108898;28;20250;-77
2021/09/29 02:06:48;;;;;;;3.63;2.70;;;;;;;-143.37;100.00;65745.06;5109086;28;20313;-77
2021/09/29 02:09:15;;;;;;;3.80;2.60;;;;;;;-143.37;100.00;65745.06;5109064;28;20298;-76
2021/09/29 02:11:43;;;;;;;2.60;2.10;;;;;;;-143.37;100.00;65745.06;5091887;28;20287;-76
2021/09/29 02:14:09;;;;;;;3.80;2.83;;;;;;;-143.37;100.00;65745.06;5088192;28;20225;-77
2021/09/29 02:16:36;;;;;;;5.63;3.03;;;;;;;-143.37;100.00;65745.06;5088128;28;20311;-77
2021/09/29 02:19:03;;;;;;;4.37;3.00;;;;;;;-143.37;100.00;65745.06;5088353;28;20239;-77
2021/09/29 02:21:30;;;;;;;3.73;2.67;;;;;;;-143.37;100.00;65745.06;5088595;28;20228;-77
2021/09/29 02:23:56;;;;;;;2.93;2.37;;;;;;;-143.37;100.00;65745.06;5088130;28;20295;-76
2021/09/29 02:26:23;;;;;;;4.40;2.57;;;;;;;-143.37;100.00;65745.06;5088157;28;20253;-76
2021/09/29 02:28:49;;;;;;;5.83;2.73;;;;;;;-143.37;100.00;65745.06;5088327;28;20634;-77
2021/09/29 02:31:16;;;;;;;3.13;2.13;;;;;;;-143.37;100.00;65745.06;5088683;28;20291;-77
2021/09/29 02:33:43;;;;;;;4.23;2.83;;;;;;;-143.37;100.00;65745.06;5092996;28;20228;-76
2021/09/29 02:36:10;;;;;;;3.20;2.47;;;;;;;-143.37;100.00;65745.06;5087616;28;20235;-77
2021/09/29 02:38:37;;;;;;;3.87;2.67;;;;;;;-143.37;100.00;65745.06;5088794;28;20205;-77
2021/09/29 02:41:04;;;;;;;4.10;3.00;;;;;;;-143.37;100.00;65745.06;5088283;28;20704;-77
2021/09/29 02:43:30;;;;;;;5.00;3.13;;;;;;;-143.37;100.00;65745.06;5080196;28;20287;-76
2021/09/29 02:45:58;;;;;;;3.63;2.70;;;;;;;-143.37;100.00;65745.06;5074841;28;20651;-77
2021/09/29 02:48:25;;;;;;;3.57;3.00;;;;;;;-143.37;100.00;65745.06;5076080;28;20216;-76
2021/09/29 02:50:52;;;;;;;3.57;2.50;;;;;;;-143.37;100.00;65745.06;5076496;28;20288;-76
2021/09/29 02:53:18;;;;;;;3.60;3.17;;;;;;;-143.37;100.00;65745.06;5075133;28;20320;-76
2021/09/29 02:55:45;;;;;;;4.73;3.23;;;;;;;-143.37;100.00;65745.06;5078844;28;20244;-77
2021/09/29 02:58:11;;;;;;;3.30;2.90;;;;;;;-143.37;100.00;65745.06;5097049;28;20268;-76
2021/09/29 03:00:38;;;;;;;3.37;2.63;;;;;;;-143.37;100.00;65745.06;5096528;28;20681;-77
2021/09/29 03:03:08;;;;;;;4.13;3.07;;;;;;;-143.37;100.00;65745.06;5096244;28;20204;-76
2021/09/29 03:05:34;;;;;;;4.37;2.90;;;;;;;-143.37;100.00;65745.06;5095478;28;20205;-76
2021/09/29 03:08:01;;;;;;;6.97;3.40;;;;;;;-143.37;100.00;65745.06;5095157;28;20239;-77
2021/09/29 03:10:27;;;;;;;3.90;3.07;;;;;;;-143.37;100.00;65745.06;5088823;28;20205;-76
2021/09/29 03:12:54;;;;;;;4.80;3.40;;;;;;;-143.37;100.00;65745.06;5091084;28;20309;-76
2021/09/29 03:15:23;;;;;;;4.57;3.23;;;;;;;-143.37;100.00;65745.06;5075272;28;20216;-75
2021/09/29 03:17:49;;;;;;;4.07;3.27;;;;;;;-143.37;100.00;65745.06;5074855;28;20282;-77
2021/09/29 03:20:16;;;;;;;5.17;3.77;;;;;;;-143.37;100.00;65745.06;5074694;28;20205;-76
2021/09/29 03:22:42;;;;;;;6.03;3.07;;;;;;;-143.37;100.00;65745.06;5075588;28;20737;-76
2021/09/29 03:25:09;;;;;;;4.27;3.33;;;;;;;-143.37;100.00;65745.06;5072906;28;20738;-76
2021/09/29 03:27:36;;;;;;;4.03;3.27;;;;;;;-143.37;100.00;65745.06;5073800;28;20691;-76
2021/09/29 03:30:03;;;;;;;6.80;3.63;;;;;;;-143.37;100.00;65745.06;5089953;28;20331;-76
2021/09/29 03:32:29;;;;;;;4.23;3.20;;;;;;;-143.37;100.00;65745.06;5089800;28;20244;-77
2021/09/29 03:34:56;;;;;;;4.30;3.20;;;;;;;-143.37;100.00;65745.06;5092590;28;20315;-77
2021/09/29 03:37:22;;;;;;;4.40;3.10;;;;;;;-143.37;100.00;65745.06;5093637;28;20251;-77
2021/09/29 03:39:49;;;;;;;3.53;3.00;;;;;;;-143.37;100.00;65745.06;5088744;28;20225;-76
2021/09/29 03:42:16;;;;;;;4.97;3.20;;;;;;;-143.37;100.00;65745.06;5072031;28;20304;-76
2021/09/29 03:44:42;;;;;;;4.30;3.10;;;;;;;-143.37;100.00;65745.06;5072926;28;20205;-76
2021/09/29 03:47:09;;;;;;;5.20;3.37;;;;;;;-143.37;100.00;65745.06;5073310;28;20221;-77
2021/09/29 03:49:35;;;;;;;5.50;3.27;;;;;;;-143.37;100.00;65745.06;5073326;28;20295;-76
2021/09/29 03:52:02;;;;;;;4.33;3.17;;;;;;;-143.37;100.00;65745.06;5073644;28;20209;-76
2021/09/29 03:54:29;;;;;;;5.40;3.50;;;;;;;-143.37;100.00;65745.06;5073532;28;20220;-76
2021/09/29 03:56:55;;;;;;;3.43;2.90;;;;;;;-143.37;100.00;65745.06;5066933;28;20256;-76
2021/09/29 03:59:22;;;;;;;5.30;3.20;;;;;;;-143.37;100.00;65745.06;5099033;28;20213;-77
2021/09/29 04:01:48;;;;;;;5.30;3.40;;;;;;;-143.37;100.00;65745.06;5094561;28;20231;-77
2021/09/29 04:04:15;;;;;;;3.77;2.77;;;;;;;-143.37;100.00;65745.06;5093072;28;20291;-77
2021/09/29 04:06:42;;;;;;;8.53;3.73;;;;;;;-143.37;100.00;65745.06;5092834;28;20815;-78
2021/09/29 04:09:08;;;;;;;4.00;2.90;;;;;;;-143.37;100.00;65745.06;5075202;28;20298;-77
2021/09/29 04:11:35;;;;;;;5.50;3.30;;;;;;;-143.37;100.00;65745.06;5076944;28;20232;-76
2021/09/29 04:14:01;;;;;;;4.20;3.00;;;;;;;-143.37;100.00;65745.06;5072843;28;20268;-76
2021/09/29 04:16:28;;;;;;;3.97;3.10;;;;;;;-143.37;100.00;65745.06;5072048;28;20315;-75
2021/09/29 04:18:56;;;;;;;7.10;3.33;;;;;;;-143.37;100.00;65745.06;5072701;28;20296;-75
2021/09/29 04:21:22;;;;;;;4.70;3.10;;;;;;;-143.37;100.00;65745.06;5072788;28;20248;-75
2021/09/29 04:23:49;;;;;;;5.27;3.57;;;;;;;-143.37;100.00;65745.06;5087768;28;20201;-76
2021/09/29 04:26:15;;;;;;;5.70;3.43;;;;;;;-143.37;100.00;65745.06;5088036;28;20264;-77
2021/09/29 04:28:42;;;;;;;4.80;3.60;;;;;;;-143.37;100.00;65745.06;5055770;28;20300;-77
2021/09/29 04:31:09;;;;;;;5.53;3.80;;;;;;;-143.37;100.00;65745.06;5064482;28;20240;-76
2021/09/29 04:33:35;;;;;;;5.47;3.57;;;;;;;-143.37;100.00;65745.06;5079978;28;20232;-77
2021/09/29 04:36:03;;;;;;;4.83;3.43;;;;;;;-143.37;100.00;65745.06;5090928;28;20243;-76
2021/09/29 04:38:30;;;;;;;4.37;3.03;;;;;;;-143.37;100.00;65745.06;5092251;28;20240;-76
2021/09/29 04:40:56;;;;;;;4.90;3.27;;;;;;;-143.37;100.00;65745.06;5078371;28;20208;-75
2021/09/29 04:43:23;;;;;;;3.90;3.07;;;;;;;-143.37;100.00;65745.06;5071997;28;20669;-76
2021/09/29 04:45:49;;;;;;;5.33;3.60;;;;;;;-143.37;100.00;65745.06;5071964;28;20208;-75
2021/09/29 04:48:16;;;;;;;7.10;4.20;;;;;;;-143.37;100.00;65745.06;5072578;28;20209;-77
2021/09/29 04:50:42;;;;;;;4.80;3.60;;;;;;;-143.37;100.00;65745.06;5072706;28;20292;-76
2021/09/29 04:53:09;;;;;;;5.27;3.83;;;;;;;-143.37;100.00;65745.06;5056344;28;20251;-77
2021/09/29 04:55:36;;;;;;;5.87;4.30;;;;;;;-143.37;100.00;65745.06;5073823;28;20236;-75
2021/09/29 04:58:02;;;;;;;5.37;3.43;;;;;;;-143.37;100.00;65745.06;5090103;28;20666;-78
2021/09/29 05:00:32;;;;;;;5.20;3.73;;;;;;;-143.37;100.00;65745.06;5091291;28;20299;-77
2021/09/29 05:02:59;;;;;;;4.87;3.73;;;;;;;-143.37;100.00;65745.06;5093080;28;20269;-78
2021/09/29 05:05:26;;;;;;;4.20;2.87;;;;;;;-143.37;100.00;65745.06;5091945;28;20200;-77
2021/09/29 05:07:56;;;;;;;4.37;3.30;;;;;;;-143.37;100.00;65745.06;5091219;28;20275;-76
2021/09/29 05:10:33;;;;;;;4.90;3.30;;;;;;;-143.37;100.00;65745.06;5086697;28;20232;-78
2021/09/29 05:13:06;;;;;;;4.80;3.40;;;;;;;-143.37;100.00;65745.06;5068088;28;20731;-76
2021/09/29 05:15:33;;;;;;;4.00;3.03;;;;;;;-143.37;100.00;65745.06;5072044;28;20739;-77
2021/09/29 05:17:59;;;;;;;4.07;2.70;;;;;;;-143.37;100.00;65745.06;5051492;28;20636;-77
2021/09/29 05:20:26;;;;;;;4.17;2.87;;;;;;;-143.37;100.00;65745.06;5068958;28;20323;-75
2021/09/29 05:22:52;;;;;;;3.40;2.70;;;;;;;-143.37;100.00;65745.06;5070824;28;20284;-77
2021/09/29 05:25:19;;;;;;;4.43;3.00;;;;;;;-143.37;100.00;65745.06;5070817;28;20198;-77
2021/09/29 05:27:48;;;;;;;3.87;2.83;;;;;;;-143.37;100.00;65745.06;5062802;28;20217;-77
2021/09/29 05:30:15;;;;;;;3.70;3.03;;;;;;;-143.37;100.00;65745.06;5058351;28;20209;-76
2021/09/29 05:32:42;;;;;;;3.87;2.70;;;;;;;-143.37;100.00;65745.06;5058165;28;20285;-75
2021/09/29 05:35:08;;;;;;;4.90;3.30;;;;;;;-143.37;100.00;65745.06;5064204;28;20213;-75
2021/09/29 05:37:35;;;;;;;3.93;2.80;;;;;;;-143.37;100.00;65745.06;5071196;28;20245;-76
2021/09/29 05:40:02;;;;;;;4.17;3.00;;;;;;;-143.37;100.00;65745.06;5071586;28;20203;-76
2021/09/29 05:42:29;;;;;;;5.67;3.30;;;;;;;-143.37;100.00;65745.06;5071033;28;20657;-78
2021/09/29 05:44:56;;;;;;;3.80;3.10;;;;;;;-143.37;100.00;65745.06;5069115;28;20247;-77
2021/09/29 05:47:22;;;;;;;5.10;3.30;;;;;;;-143.37;100.00;65745.06;5069312;28;20315;-77
2021/09/29 05:49:48;;;;;;;7.27;3.10;;;;;;;-143.37;100.00;65745.06;5070938;28;20749;-76
2021/09/29 05:52:15;;;;;;;4.27;3.03;;;;;;;-143.37;100.00;65745.06;5070950;28;20208;-80
2021/09/29 05:54:41;;;;;;;5.33;3.13;;;;;;;-143.37;100.00;65745.06;5070231;28;20312;-76
2021/09/29 05:57:08;;;;;;;5.67;3.10;;;;;;;-143.37;100.00;65745.06;5080171;28;20310;-78
2021/09/29 05:59:34;;;;;;;4.87;3.20;;;;;;;-143.37;100.00;65745.06;5091837;28;20264;-76
2021/09/29 06:02:01;;;;;;;5.80;3.73;;;;;;;-143.37;100.00;65745.06;5091791;28;20253;-76
2021/09/29 06:04:28;;;;;;;4.30;3.43;;;;;;;-143.37;100.00;65745.06;5091311;28;20238;-77
2021/09/29 06:06:57;;;;;;;6.73;3.43;;;;;;;-143.37;100.00;65745.06;5073206;28;20793;-77
2021/09/29 06:09:24;;;;;;;6.47;4.13;;;;;;;-143.37;100.00;65745.06;5091580;28;20254;-77
2021/09/29 06:11:50;;;;;;;7.13;5.13;;;;;;;-143.37;100.00;65745.06;5072157;28;20284;-76
2021/09/29 06:14:17;;;;;;;8.40;4.90;;;;;;;-143.37;100.00;65745.06;5070588;28;20308;-78
2021/09/29 06:16:45;;;;;;;8.00;6.03;;;;;;;-143.37;100.00;65745.06;5070656;28;20960;-76
2021/09/29 06:19:14;;;;;;;10.90;7.00;;;;;;;-143.37;100.00;65745.06;5071433;28;20206;-76
2021/09/29 06:21:41;;;;;;;9.13;5.60;;;;;;;-143.37;100.00;65745.06;5074826;28;20300;-76
2021/09/29 06:24:08;;;;;;;7.63;5.77;;;;;;;-143.37;100.00;65745.06;5074796;28;20240;-75
2021/09/29 06:26:34;;;;;;;8.67;5.77;;;;;;;-143.37;100.00;65745.06;5074319;28;20316;-78
2021/09/29 06:29:01;;;;;;;8.37;5.50;;;;;;;-143.37;100.00;65745.06;5074407;28;20205;-76
2021/09/29 06:31:27;;;;;;;9.30;6.17;;;;;;;-143.37;100.00;65745.06;5074407;28;20634;-76
2021/09/29 06:33:54;;;;;;;8.50;6.03;;;;;;;-143.37;100.00;65745.06;5083179;28;20643;-76
2021/09/29 06:36:21;;;;;;;9.83;6.23;;;;;;;-143.37;100.00;65745.06;5093004;28;20263;-75
2021/09/29 06:38:47;;;;;;;11.27;6.37;;;;;;;-143.37;100.00;65745.06;5093523;28;20292;-75
2021/09/29 06:41:14;;;;;;;10.30;5.87;;;;;;;-143.37;100.00;65745.06;5077973;28;20293;-76
2021/09/29 06:43:40;;;;;;;10.87;6.40;;;;;;;-143.37;100.00;65745.06;5073749;28;20328;-76
2021/09/29 06:46:06;;;;;;;11.17;7.13;;;;;;;-143.37;100.00;65745.06;5073885;28;20278;-77
2021/09/29 06:48:33;;;;;;;11.23;6.63;;;;;;;-143.37;100.00;65745.06;5073004;28;20208;-75
2021/09/29 06:51:00;;;;;;;8.27;5.43;;;;;;;-143.37;100.00;65745.06;5074221;28;20209;-76
2021/09/29 06:53:26;;;;;;;11.73;6.90;;;;;;;-143.37;100.00;65745.06;5073746;28;20644;-75
2021/09/29 06:55:53;;;;;;;10.67;6.87;;;;;;;-143.37;100.00;65745.06;5073583;28;20681;-75
2021/09/29 06:58:21;;;;;;;15.23;7.37;;;;;;;-143.37;100.00;65745.06;5093177;28;20215;-74
2021/09/29 07:00:48;;;;;;;11.33;7.67;;;;;;;-143.37;100.00;65745.06;5094109;28;20204;-74
2021/09/29 07:03:15;;;;;;;11.50;7.13;;;;;;;-143.37;100.00;65745.06;5094069;28;20261;-75
2021/09/29 07:05:41;;;;;;;17.37;9.77;;;;;;;-143.37;100.00;65745.06;5093844;28;20235;-77
2021/09/29 07:08:08;;;;;;;16.30;10.20;;;;;;;-143.37;100.00;65745.06;5094121;28;20305;-77
2021/09/29 07:10:34;;;;;;;15.50;9.83;;;;;;;-143.37;100.00;65745.06;5081597;28;20216;-74
2021/09/29 07:13:01;;;;;;;18.23;10.30;;;;;;;-143.37;100.00;65745.06;5070269;28;20212;-79
2021/09/29 07:15:27;;;;;;;17.30;10.30;;;;;;;-143.37;100.00;65745.06;5073105;28;20267;-76
2021/09/29 07:17:59;;;;;;;17.53;10.27;;;;;;;-143.37;100.00;65745.06;5073758;28;20229;-77
2021/09/29 07:20:27;;;;;;;15.67;9.93;;;;;;;-143.37;100.00;65745.06;5073809;28;20205;-75
2021/09/29 07:22:54;;;;;;;19.83;11.63;;;;;;;-143.37;100.00;65745.06;5073450;28;20659;-75
2021/09/29 07:25:21;;;;;;;19.60;12.00;;;;;;;-143.37;100.00;65745.06;5073083;28;20359;-75
2021/09/29 07:27:47;;;;;;;17.60;10.97;;;;;;;-143.37;100.00;65745.06;5073516;28;20312;-75
2021/09/29 07:30:14;;;;;;;17.73;11.07;;;;;;;-143.37;100.00;65745.06;5073223;28;20296;-75
2021/09/29 07:32:41;;;;;;;22.20;11.77;;;;;;;-143.37;100.00;65745.06;5073940;28;20787;-76
2021/09/29 07:35:07;;;;;;;18.90;11.10;;;;;;;-143.37;100.00;65745.06;5091551;28;20223;-77
2021/09/29 07:37:34;;;;;;;17.83;11.53;;;;;;;-143.37;100.00;65745.06;5091736;28;20256;-77
2021/09/29 07:40:05;;;;;;;20.53;11.90;;;;;;;-143.37;100.00;65745.06;5086483;28;20293;-75
2021/09/29 07:42:32;;;;;;;16.90;11.23;;;;;;;-143.37;100.00;65745.06;5072802;28;20647;-75
2021/09/29 07:44:58;;;;;;;20.60;12.20;;;;;;;-143.37;100.00;65745.06;5072247;28;20288;-78
2021/09/29 07:47:25;;;;;;;20.37;12.30;;;;;;;-143.37;100.00;65745.06;5072746;28;20316;-78
2021/09/29 07:49:51;;;;;;;15.60;10.80;;;;;;;-143.37;100.00;65745.06;5073296;28;20232;-78
2021/09/29 07:52:18;;;;;;;21.43;11.33;;;;;;;-143.37;100.00;65745.06;5072843;28;20240;-77
2021/09/29 07:54:44;;;;;;;16.17;11.10;;;;;;;-143.37;100.00;65745.06;5071931;28;20790;-75
2021/09/29 07:57:11;;;;;;;17.48;10.93;;;;;;;-143.37;100.00;65745.06;5082503;28;20638;-75
2021/09/29 07:59:37;;;;;;;17.98;11.68;;;;;;;-143.37;100.00;65745.06;5092858;28;20648;-75
2021/09/29 08:02:04;;;;;;;18.52;11.73;;;;;;;-143.37;100.00;65745.06;5093272;28;20303;-77
2021/09/29 08:04:31;;;;;;;14.65;10.60;;;;;;;-143.37;100.00;65745.06;5085341;28;20216;-77
2021/09/29 08:06:57;;;;;;;16.65;10.50;;;;;;;-143.37;100.00;65745.06;5072125;28;20225;-76
2021/09/29 08:09:24;;;;;;;14.15;9.82;;;;;;;-143.37;100.00;65745.06;5072945;28;20679;-77
2021/09/29 08:11:50;;;;;;;12.13;8.20;;;;;;;-143.37;100.00;65745.06;5072641;28;20232;-76
2021/09/29 08:14:18;;;;;;;11.60;8.85;;;;;;;-143.37;100.00;65745.06;5071648;28;20308;-75
2021/09/29 08:16:46;;;;;;;12.43;8.52;;;;;;;-143.37;100.00;65745.06;5070433;28;20294;-77
2021/09/29 08:19:14;;;;;;;13.80;9.00;;;;;;;-143.37;100.00;65745.06;5071966;28;20217;-76
2021/09/29 08:21:44;;;;;;;12.13;6.85;;;;;;;-143.37;100.00;65745.06;5072339;28;20300;-75
2021/09/29 08:24:15;;;;;;;9.18;6.75;;;;;;;-143.37;100.00;65745.06;5070831;28;20300;-75
2021/09/29 08:32:21;;;;;;;7.63;5.95;;;;;;;-143.37;100.00;65745.06;5072015;28;20201;-76
2021/09/29 08:44:56;;;;;;;6.72;4.78;;;;;;;-143.37;100.00;65745.06;5091444;28;20326;-76
2021/09/29 08:50:00;;;;;;;6.72;5.03;;;;;;;-143.37;100.00;65745.06;5091925;28;20295;-75
2021/09/29 08:56:05;;;;;;;6.78;4.93;;;;;;;-143.37;100.00;65745.06;5091221;28;20821;-79
2021/09/29 09:17:08;;;;;;;8.27;4.45;;;;;;;-143.37;100.00;65745.06;5091387;28;20231;-77
2021/09/29 09:19:36;;;;;;;6.78;3.92;;;;;;;-143.37;100.00;65745.06;5091968;28;20204;-75
2021/09/29 09:22:05;;;;;;;4.93;3.92;;;;;;;-143.37;100.00;65745.06;5091714;28;20299;-77
2021/09/29 09:24:35;;;;;;;6.05;3.45;;;;;;;-143.37;100.00;65745.06;5091454;28;20255;-78
2021/09/29 09:27:08;;;;;;;7.25;3.42;;;;;;;-143.37;100.00;65745.06;5091131;28;20260;-77
2021/09/29 09:29:46;;;;;;;5.45;3.40;;;;;;;-143.37;100.00;65745.06;5091687;28;20244;-75
2021/09/29 09:32:15;;;;;;;7.72;3.15;;;;;;;-143.37;100.00;65745.06;5091347;28;20208;-75
2021/09/29 09:34:42;;;;;;;4.22;2.85;;;;;;;-143.37;100.00;65745.06;5071756;28;20294;-78
2021/09/29 09:37:11;;;;;;;4.85;2.42;;;;;;;-143.37;100.00;65745.06;5071007;28;20730;-77
2021/09/29 09:39:38;;;;;;;4.35;2.58;;;;;;;-143.37;100.00;65745.06;5086423;28;20239;-75
2021/09/29 09:42:07;;;;;;;4.70;2.50;;;;;;;-143.37;100.00;65745.06;5070748;28;20209;-77
2021/09/29 09:44:36;;;;;;;12.35;3.38;;;;;;;-143.37;100.00;65745.06;5070720;28;20236;-77
2021/09/29 09:47:16;;;;;;;4.78;3.70;;;;;;;-143.37;100.00;65745.06;5070798;28;20268;-76
2021/09/29 09:49:47;;;;;;;3.65;2.85;;;;;;;-143.37;100.00;65745.06;5069959;28;20213;-76
2021/09/29 09:52:36;;;;;;;5.97;3.40;;;;;;;-143.37;100.00;65745.06;5069626;28;20600;-75
2021/09/29 09:55:12;;;;;;;5.28;2.28;;;;;;;-143.37;100.00;65745.06;5071517;28;20681;-77
2021/09/29 09:57:40;;;;;;;3.58;2.33;;;;;;;-143.37;100.00;65745.06;5088352;28;20255;-75
2021/09/29 10:00:10;;;;;;;7.22;2.80;;;;;;;-143.37;100.00;65745.06;5095001;28;20287;-76
2021/09/29 10:02:39;;;;;;;5.28;2.85;;;;;;;-143.37;100.00;65745.06;5094984;28;20228;-76
2021/09/29 10:05:07;;;;;;;3.60;2.53;;;;;;;-143.37;100.00;65745.06;5093761;28;20797;-76
2021/09/29 10:07:34;;;;;;;3.55;2.13;;;;;;;-143.37;100.00;65745.06;5094230;28;20224;-78
2021/09/29 10:10:06;;;;;;;3.08;2.20;;;;;;;-143.37;100.00;65745.06;5091876;28;20206;-78
2021/09/29 10:24:01;;;;;;;1.23;0.65;;;;;;;-143.37;100.00;65745.06;5073857;28;20670;-76
2021/09/29 10:26:26;;;;;;;2.70;0.95;;;;;;;-143.37;100.00;65745.06;5073510;28;20315;-75
2021/09/29 10:29:07;;;;;;;1.60;0.98;;;;;;;-143.37;100.00;65745.06;5073972;28;20784;-77
2021/09/29 10:32:02;;;;;;;1.92;0.73;;;;;;;-143.37;100.00;65745.06;5073570;28;20780;-77
2021/09/29 10:34:38;;;;;;;1.42;0.80;;;;;;;-143.37;100.00;65745.06;5088797;28;20311;-78
2021/09/29 10:48:03;;;;;;;1.70;0.80;;;;;;;-143.37;100.00;65745.06;5073874;28;20316;-78
2021/09/29 10:50:51;;;;;;;1.30;0.50;;;;;;;-143.37;100.00;65745.06;5073110;28;20213;-78
2021/09/29 11:07:35;;;;;;;1.42;0.68;;;;;;;-143.37;100.00;65745.06;5072901;28;20598;-75
2021/09/29 11:32:20;;;;;;;1.65;0.70;;;;;;;-143.37;100.00;65745.06;5056236;28;20317;-74
2021/09/29 11:34:51;;;;;;;1.15;0.57;;;;;;;-143.37;100.00;65745.06;5072023;28;20235;-74
2021/09/29 12:08:19;;;;;;;1.35;0.60;;;;;;;-143.37;100.00;65745.06;5074160;28;20233;-74
2021/09/29 12:11:00;;;;;;;0.93;0.80;;;;;;;-143.37;100.00;65745.06;5064877;28;20726;-76
2021/09/29 12:13:41;;;;;;;1.30;0.73;;;;;;;-143.37;100.00;65745.06;5052695;28;20216;-76
2021/09/29 12:16:08;;;;;;;0.82;0.70;;;;;;;-143.37;100.00;65745.06;5054057;28;20812;-74
2021/09/29 12:18:35;;;;;;;1.20;0.55;;;;;;;-143.37;100.00;65745.06;5053751;28;20210;-74
2021/09/29 12:21:02;;;;;;;1.80;0.60;;;;;;;-143.37;100.00;65745.06;5055449;28;20296;-74
2021/09/29 12:23:30;;;;;;;1.75;0.85;;;;;;;-143.37;100.00;65745.06;5038473;28;20213;-74
2021/09/29 12:26:26;;;;;;;1.52;0.88;;;;;;;-143.37;100.00;65745.06;5054201;28;20238;-73
2021/09/29 12:29:00;;;;;;;1.45;0.60;;;;;;;-143.37;100.00;65745.06;5054196;28;20252;-74
2021/09/29 12:31:44;;;;;;;1.55;0.52;;;;;;;-143.37;100.00;65745.06;5052322;28;20300;-74
2021/09/29 12:34:23;;;;;;;2.88;0.55;;;;;;;-143.37;100.00;65745.06;5066731;28;20220;-74
2021/09/29 12:36:50;;;;;;;1.17;0.60;;;;;;;-143.37;100.00;65745.06;5072437;28;20229;-74
2021/09/29 12:39:19;;;;;;;0.82;0.60;;;;;;;-143.37;100.00;65745.06;5074962;28;20209;-76
2021/09/29 12:41:48;;;;;;;1.73;0.80;;;;;;;-143.37;100.00;65745.06;5054333;28;20309;-73
2021/09/29 12:44:16;;;;;;;1.55;0.50;;;;;;;-143.37;100.00;65745.06;5063676;28;20213;-73
2021/09/29 12:46:48;;;;;;;0.73;0.40;;;;;;;-143.37;100.00;65745.06;5055181;28;20670;-74
2021/09/29 12:49:21;;;;;;;0.85;0.50;;;;;;;-143.37;100.00;65745.06;5054331;28;20239;-75
2021/09/29 12:51:55;;;;;;;1.55;0.50;;;;;;;-143.37;100.00;65745.06;5069635;28;20193;-75
2021/09/29 12:54:23;;;;;;;2.35;0.52;;;;;;;-143.37;100.00;65745.06;5059534;28;20693;-74
2021/09/29 12:56:50;;;;;;;2.08;0.73;;;;;;;-143.37;100.00;65745.06;5060691;28;20354;-75
2021/09/29 12:59:17;;;;;;;0.80;0.60;;;;;;;-143.37;100.00;65745.06;5074359;28;20275;-75
2021/09/29 13:01:43;;;;;;;1.98;0.60;;;;;;;-143.37;100.00;65745.06;5072480;28;20207;-74
2021/09/29 13:04:10;;;;;;;2.50;0.70;;;;;;;-143.37;100.00;65745.06;5071940;28;20666;-74
2021/09/29 13:06:37;;;;;;;1.20;0.63;;;;;;;-143.37;100.00;65745.06;5071865;28;20722;-74
2021/09/29 13:09:04;;;;;;;2.63;0.60;;;;;;;-143.37;100.00;65745.06;5070622;28;20201;-73
2021/09/29 13:11:30;;;;;;;1.92;0.77;;;;;;;-143.37;100.00;65745.06;5083267;28;20689;-74
2021/09/29 13:13:57;;;;;;;0.40;0.40;;;;;;;-143.37;100.00;65745.06;5070617;28;20237;-74
2021/09/29 13:16:38;;;;;;;3.03;0.82;;;;;;;-143.37;100.00;65745.06;5070694;28;20237;-74
2021/09/29 13:19:18;;;;;;;1.15;0.70;;;;;;;-143.37;100.00;65745.06;5072299;28;20582;-76
2021/09/29 13:21:58;;;;;;;0.93;0.60;;;;;;;-143.37;100.00;65745.06;5071513;28;20223;-76
2021/09/29 13:37:51;;;;;;;1.63;0.55;;;;;;;-143.37;100.00;65745.06;5067412;28;20308;-74
2021/09/29 13:40:18;;;;;;;3.25;0.90;;;;;;;-143.37;100.00;65745.06;5067590;28;20206;-72
2021/09/29 13:42:45;;;;;;;2.45;0.63;;;;;;;-143.37;100.00;65745.06;5050087;28;20289;-73
2021/09/29 13:45:11;;;;;;;2.53;0.90;;;;;;;-143.37;100.00;65745.06;5048534;28;20279;-73
2021/09/29 13:47:38;;;;;;;0.43;0.40;;;;;;;-143.37;100.00;65745.06;5049850;28;20226;-73
2021/09/29 13:50:08;;;;;;;0.50;0.50;;;;;;;-143.37;100.00;65745.06;5049933;28;20206;-73
2021/09/29 13:52:34;;;;;;;0.93;0.63;;;;;;;-143.37;100.00;65745.06;5050251;28;20324;-72
2021/09/29 13:55:05;;;;;;;0.90;0.70;;;;;;;-143.37;100.00;65745.06;5064262;28;20210;-73
2021/09/29 13:57:48;;;;;;;1.13;0.90;;;;;;;-143.37;100.00;65745.06;5062954;28;20340;-72
2021/09/29 14:30:34;;;;;;;2.80;0.50;;;;;;;-143.37;100.00;65745.06;5041255;28;20456;-74
2021/09/29 14:33:06;;;;;;;0.80;0.60;;;;;;;-143.37;100.00;65745.06;5049008;28;20677;-75
2021/09/29 14:35:33;;;;;;;0.43;0.40;;;;;;;-143.37;100.00;65745.06;5064890;28;20683;-75
2021/09/29 14:38:00;;;;;;;0.55;0.45;;;;;;;-143.37;100.00;65745.06;5048173;28;20291;-74